Latest Coastal Weather Observations for Albany Airport

IDW60701

Issued at 4:15 pm WST Sunday 31 August 2014 (issued every 10 minutes, with the page automatically refreshed every 10 minutes)

About coastal observations | Map of coastal stations | Coastal observations for WA | Marine services | Other Formats
Station Details ID: 009999 Name: ALBANY AIRPORT Lat: -34.94 Lon: 117.82 Height: 68.4 m
Data from the previous 72 hours. | See also: Recent months at Albany Airport
Date/Time
WST
Temp

°C
Wind Pressure Rain
since 9am
mm
Weather Cloud Vis
km
Sea
Height
m
Swell
Dir
 
Speed
knots
Gust
knots
hPa Trend Height
m
Period
s
Dir
31/04:00pm 12.2 SW 6 9 1019.4 - 2.0 - Mostly clear 10 - - - -
31/03:30pm 13.8 S 10 14 1019.1 - 2.0 - Mostly clear 10 - - - -
31/03:00pm 13.3 SSW 11 17 1019.0 R 2.0 Fine Mostly cloudy 25 - - - -
31/02:30pm 14.0 SW 14 22 1018.2 - 2.0 - Mostly clear 10 - - - -
31/02:00pm 13.5 SW 13 19 1018.1 - 2.0 - Mostly clear 10 - - - -
31/01:30pm 14.1 SW 13 18 1017.8 - 2.0 - Mostly clear 10 - - - -
31/01:00pm 13.6 SW 13 21 1017.8 - 2.0 - Mostly clear 10 - - - -
31/12:30pm 13.9 W 8 14 1018.0 - 2.0 - Mostly clear 10 - - - -
31/12:00pm 11.9 W 9 13 1018.6 R 2.0 Recent precip. Mostly cloudy 25 - - - -
31/11:30am 10.7 W 9 14 1018.7 - 1.6 - Mostly clear 10 - - - -
31/11:00am 10.8 W 8 11 1018.4 - 1.2 - Mostly clear 10 - - - -
31/10:00am 13.1 WNW 9 13 1018.4 - 0.0 - Mostly clear 10 - - - -
31/09:30am 13.5 WSW 13 16 1018.7 - 0.0 - Mostly clear 10 - - - -
31/09:00am 11.8 W 11 15 1018.6 R 0.2 Recent precip. Partly cloudy 30 - - - -
31/08:30am 11.6 WNW 13 16 1018.1 - 0.2 Showers Mostly clear 10 - - - -
31/07:30am 9.2 WNW 11 14 1017.8 - 0.2 - Mostly clear 10 - - - -
31/07:00am 7.7 NW 9 13 1017.6 - 0.2 - Mostly clear 10 - - - -
31/06:30am 7.1 NW 9 11 1017.3 - 0.2 - Mostly clear 10 - - - -
31/06:00am 7.2 NW 8 11 1017.3 R 0.2 Fine Partly cloudy 25 - - - -
31/05:30am 7.2 WNW 8 10 1016.9 - 0.2 - - 10 - - - -
31/05:00am 7.2 NW 8 9 1016.8 - 0.2 - - 10 - - - -
31/04:30am 8.1 WNW 9 10 1016.7 - 0.2 - Partly cloudy 10 - - - -
31/04:00am 8.8 NW 8 10 1016.9 - 0.2 - Partly cloudy 10 - - - -
31/03:30am 8.7 WNW 7 9 1016.7 - 0.2 - Partly cloudy 10 - - - -
31/03:00am 8.5 NW 7 8 1016.8 - 0.2 - Cloudy 10 - - - -
31/02:30am 8.5 WNW 8 11 1016.4 - 0.2 - Partly cloudy 10 - - - -
31/02:00am 7.6 WNW 6 6 1016.5 - 0.2 - - 10 - - - -
31/01:30am 7.9 NW 6 7 1016.6 - 0.2 - Partly cloudy 10 - - - -
31/01:00am 7.4 NW 6 7 1016.6 - 0.2 - Partly cloudy 10 - - - -
31/12:30am 7.7 NW 7 8 1016.5 - 0.2 - - 10 - - - -
31/12:00am 7.3 NW 7 9 1017.0 - 0.2 - - 10 - - - -
 
Date/Time
WST
Temp

°C
Wind Pressure Rain
since 9am
mm
Weather Cloud Vis
km
Sea
Height
m
Swell
Dir
 
Speed
knots
Gust
knots
hPa Trend Height
m
Period
s
Dir
30/11:30pm 7.2 NW 7 8 1016.6 - 0.2 - Partly cloudy 10 - - - -
30/11:00pm 7.4 NW 6 7 1016.8 - 0.2 - Partly cloudy 10 - - - -
30/10:30pm 7.4 NW 7 7 1017.1 - 0.2 - - 10 - - - -
30/10:00pm 8.5 WNW 6 7 1017.4 - 0.2 - Partly cloudy 10 - - - -
30/09:30pm 9.1 WNW 6 7 1017.1 - 0.2 - Partly cloudy 10 - - - -
30/09:00pm 8.9 WNW 6 6 1017.4 - 0.2 - Cloudy 10 - - - -
30/08:30pm 9.2 NW 5 5 1017.1 - 0.2 - - 10 - - - -
30/08:00pm 9.7 NW 6 6 1016.9 - 0.2 - - 10 - - - -
30/07:30pm 10.4 WNW 5 6 1017.0 - 0.2 - Partly cloudy 10 - - - -
30/07:00pm 11.2 WNW 5 5 1016.7 - 0.2 - Partly cloudy 10 - - - -
30/06:30pm 11.1 NW 5 5 1016.6 - 0.2 - Partly cloudy 10 - - - -
30/06:00pm 11.4 WNW 5 5 1016.5 - 0.2 - Cloudy 10 - - - -
30/05:30pm 12.3 WSW 5 7 1016.3 - 0.2 - Partly cloudy 10 - - - -
30/05:00pm 12.7 WSW 9 15 1016.1 - 0.2 - Mostly clear 10 - - - -
30/04:30pm 13.4 SW 7 11 1015.6 - 0.2 - Mostly clear 10 - - - -
30/04:00pm 13.3 SW 8 12 1015.4 - 0.2 - Mostly clear 10 - - - -
30/03:30pm 14.0 SW 11 16 1015.1 - 0.2 - Mostly clear 10 - - - -
30/03:00pm 13.6 W 5 6 1015.0 R 0.2 Fine Mostly cloudy 30 - - - -
30/02:30pm 14.7 W 10 14 1014.6 - 0.2 - Mostly clear 10 - - - -
30/02:00pm 13.8 W 9 13 1014.6 - 0.2 - Mostly clear 10 - - - -
30/01:30pm 14.0 WSW 13 18 1014.5 - 0.2 - Mostly clear 10 - - - -
30/01:00pm 15.2 WSW 11 16 1014.4 - 0.2 - Mostly clear 10 - - - -
30/12:30pm 15.1 W 10 15 1014.5 - 0.2 - Mostly clear 10 - - - -
30/12:00pm 14.8 W 13 18 1014.8 R 0.2 Fine Mostly cloudy 30 - - - -
30/11:30am 15.7 WSW 11 18 1014.8 - 0.2 - Mostly clear 10 - - - -
30/11:00am 14.6 W 12 16 1015.0 - 0.2 - Mostly clear 10 - - - -
30/10:30am 13.9 W 9 11 1015.1 - 0.2 - Mostly clear 10 - - - -
30/10:00am 12.9 W 8 11 1014.9 - 0.2 - Mostly clear 10 - - - -
30/09:30am 12.6 W 10 17 1014.7 - 0.2 - Mostly clear 10 - - - -
30/09:17am 12.3 W 9 14 1014.7 - 0.0 Drizzle Mostly clear 6 - - - -
30/09:00am 12.6 W 8 11 1014.8 R 11.8 Drizzle Mostly cloudy 20 - - - -
30/08:30am 11.9 W 7 9 1014.4 - 11.8 - Mostly clear 10 - - - -
30/08:11am 11.5 WNW 7 10 1014.2 - 11.8 - Partly cloudy 6 - - - -
30/08:00am 11.2 WNW 6 10 1014.0 - 11.8 - Mostly clear 10 - - - -
30/07:30am 10.8 WNW 7 9 1013.6 - 11.4 - Partly cloudy 10 - - - -
30/07:24am 10.8 WNW 7 8 1013.5 - 11.4 Fog patches Partly cloudy 6 - - - -
30/07:00am 10.7 W 7 9 1013.2 - 11.4 Fog patches Mostly cloudy 2 - - - -
30/06:30am 10.4 NW 5 7 1012.7 - 11.2 Fog Mostly cloudy 0.2 - - - -
30/06:00am 10.5 NNW 4 5 1012.2 R 11.2 Fog Fog 0.2 - - - -
30/05:30am 10.6 NW 5 8 1011.9 - 11.2 - Cloudy 0.5 - - - -
30/05:00am 10.7 NNW 6 8 1011.8 - 11.2 - Cloudy 0.6 - - - -
30/04:30am 10.8 NNW 6 8 1011.6 - 11.2 - Cloudy 0.2 - - - -
30/04:00am 9.7 NNW 4 4 1011.4 - 11.2 - Cloudy 0.2 - - - -
30/03:30am 9.7 NW 4 6 1011.4 - 11.2 - Partly cloudy 0.2 - - - -
30/03:26am 9.8 NW 4 5 1011.3 - 11.2 - Partly cloudy 0.2 - - - -
30/03:00am 9.3 NNW 4 5 1011.5 - 11.2 - Cloudy 0.4 - - - -
30/02:30am 10.0 CALM 0 0 1011.1 - 11.2 - - 0.8 - - - -
30/02:21am 11.0 CALM 0 0 1011.3 - 11.2 - Partly cloudy 6 - - - -
30/02:19am 11.4 CALM 0 0 1011.2 - 11.2 - Partly cloudy 10 - - - -
30/02:00am 11.8 W 4 6 1011.3 - 11.2 - Cloudy 10 - - - -
30/01:30am 11.8 SW 4 5 1011.7 - 11.2 - Cloudy 10 - - - -
30/01:25am 11.7 SW 4 5 1011.6 - 11.2 - Cloudy 10 - - - -
30/01:00am 11.9 SSW 7 9 1011.6 - 11.2 - Cloudy 5 - - - -
30/12:56am 11.9 SW 7 9 1011.6 - 11.2 - Cloudy 5 - - - -
30/12:34am 11.9 SSW 6 9 1011.2 - 11.2 - Cloudy 6 - - - -
30/12:30am 11.9 SW 6 9 1011.3 - 11.0 - Cloudy 10 - - - -
30/12:00am 11.6 CALM 0 0 1011.2 - 11.0 - Cloudy 10 - - - -
 
Date/Time
WST
Temp

°C
Wind Pressure Rain
since 9am
mm
Weather Cloud Vis
km
Sea
Height
m
Swell
Dir
 
Speed
knots
Gust
knots
hPa Trend Height
m
Period
s
Dir
29/11:30pm 11.4 NNE 3 5 1010.8 - 11.0 - Partly cloudy 10 - - - -
29/11:00pm 11.8 N 5 6 1011.6 - 11.0 - Partly cloudy 10 - - - -
29/10:30pm 12.2 N 4 6 1011.2 - 11.0 - Partly cloudy 10 - - - -
29/10:00pm 12.3 NNW 5 6 1012.1 - 11.0 - Partly cloudy 10 - - - -
29/09:31pm 12.3 N 6 6 1011.8 - 10.8 - Partly cloudy 10 - - - -
29/09:30pm 12.3 N 5 6 1011.9 - 10.8 - Partly cloudy 10 - - - -
29/09:03pm 12.5 N 6 7 1012.0 - 10.8 - Partly cloudy 6 - - - -
29/09:02pm 12.5 N 6 7 1012.0 - 10.8 - Partly cloudy 7 - - - -
29/09:00pm 12.5 N 6 7 1012.2 - 10.8 - Cloudy 9 - - - -
29/08:40pm 12.6 N 4 5 1012.1 - 10.6 - Partly cloudy 6 - - - -
29/08:30pm 12.7 N 5 6 1012.2 - 10.6 - Partly cloudy 10 - - - -
29/08:00pm 12.7 N 3 4 1011.9 - 10.6 - Cloudy 10 - - - -
29/07:30pm 13.0 N 5 6 1012.1 - 10.6 - Cloudy 10 - - - -
29/07:00pm 12.9 N 5 6 1011.8 - 10.6 - Cloudy 10 - - - -
29/06:30pm 12.9 N 4 5 1011.8 - 10.6 - Partly cloudy 10 - - - -
29/06:00pm 13.1 NNW 3 4 1011.6 - 10.6 - Cloudy 10 - - - -
29/05:30pm 13.5 WNW 3 4 1011.3 - 10.6 - Partly cloudy 10 - - - -
29/05:00pm 13.9 W 4 5 1011.2 - 10.6 - Mostly clear 10 - - - -
29/04:30pm 13.9 WNW 3 4 1010.7 - 10.6 Showers Mostly clear 10 - - - -
29/04:00pm 14.2 WNW 7 8 1011.0 - 10.4 Showers Mostly clear 8 - - - -
29/03:30pm 14.7 WNW 5 6 1010.7 - 10.2 - Mostly clear 10 - - - -
29/03:00pm 14.7 W 6 8 1010.8 R 10.2 Showers Cloudy 25 - - - -
29/02:30pm 14.6 WNW 7 9 1010.5 - 10.2 - Mostly clear 10 - - - -
29/02:00pm 14.6 W 7 11 1010.2 - 10.2 - Mostly clear 10 - - - -
29/01:53pm 14.1 WSW 8 13 1010.1 - 10.2 - Mostly clear 9 - - - -
29/01:30pm 14.3 SW 7 9 1009.6 - 10.0 Rain Mostly clear 4 - - - -
29/01:18pm 14.2 WSW 7 10 1009.7 - 10.0 Rain Mostly clear 5 - - - -
29/01:00pm 14.1 WSW 9 12 1010.1 - 9.6 Rain Mostly cloudy 4 - - - -
29/12:43pm 14.4 SW 7 11 1010.0 - 9.6 Showers Mostly clear 6 - - - -
29/12:30pm 14.2 SW 9 13 1010.0 - 9.6 - Mostly clear 8 - - - -
29/12:00pm 14.3 SSW 7 11 1009.9 R 9.6 Showers Cloudy 8 - - - -
29/11:52am 14.4 SSW 5 7 1009.5 - 9.4 Showers Partly cloudy 5 - - - -
29/11:45am 14.2 SSW 5 7 1009.9 - 9.0 Rain Partly cloudy 3 - - - -
29/11:30am 14.1 SW 1 4 1009.8 - 9.0 Rain Partly cloudy 9 - - - -
29/11:00am 14.0 WNW 6 9 1010.4 - 8.4 Rain Partly cloudy 8 - - - -
29/10:47am 14.2 W 6 7 1010.2 - 7.8 Rain Partly cloudy 3 - - - -
29/10:30am 14.0 W 8 10 1010.2 - 6.6 Rain Mostly cloudy 2 - - - -
29/10:24am 14.0 W 7 10 1010.2 - 5.0 Showers Mostly cloudy 1 - - - -
29/10:12am 14.1 W 4 5 1010.1 - 3.0 Rain Mostly cloudy 3 - - - -
29/10:00am 14.1 WNW 3 4 1010.0 - 2.4 Rain Mostly cloudy 7 - - - -
29/09:30am 14.2 NW 5 6 1010.1 - 0.8 Rain Mostly clear 6 - - - -
29/09:00am 14.2 SW 6 8 1010.1 R 18.0 Showers Cloudy 8 - - - -
29/08:53am 14.1 WSW 6 8 1009.9 - 17.8 - Partly cloudy 8 - - - -
29/08:30am 14.5 WSW 9 13 1010.0 - 16.8 Showers Mostly cloudy 5 - - - -
29/08:14am 14.5 WSW 6 8 1009.6 - 16.0 Showers Partly cloudy 9 - - - -
29/08:00am 14.6 WNW 6 8 1009.3 - 15.8 Showers Mostly clear 10 - - - -
29/07:52am 14.5 WNW 8 11 1009.2 - 15.6 Showers Mostly clear 10 - - - -
29/07:38am 14.5 W 11 16 1009.1 - 14.8 Showers Mostly clear 4 - - - -
29/07:30am 14.5 W 12 16 1009.0 - 13.2 Showers Mostly clear 1 - - - -
29/07:20am 14.6 W 11 17 1009.0 - 9.2 Showers Mostly clear 2 - - - -
29/07:13am 14.9 W 10 14 1008.7 - 7.4 Showers Mostly clear 3 - - - -
29/07:00am 14.9 WSW 9 13 1008.6 - 7.2 Showers Mostly clear 10 - - - -
29/06:55am 15.1 WNW 8 11 1008.7 - 6.4 Showers Mostly clear 6 - - - -
29/06:30am 15.2 NNW 8 13 1008.4 - 5.8 Rain Mostly clear 10 - - - -
29/06:00am 15.1 NNW 9 13 1008.4 F 5.6 Rain Cloudy 20 - - - -
29/05:30am 15.2 NNW 11 15 1008.1 - 5.4 - Partly cloudy 10 - - - -
29/05:16am 15.0 NNW 9 13 1008.4 - 4.8 - Partly cloudy 10 - - - -
29/05:00am 15.0 NNW 12 17 1008.5 - 4.4 - Partly cloudy 5 - - - -
29/04:48am 15.2 NNW 10 13 1008.7 - 3.4 - Partly cloudy 5 - - - -
29/04:30am 15.4 NNW 9 11 1008.5 - 2.8 - Partly cloudy 10 - - - -
29/04:00am 15.7 NW 9 12 1008.2 - 2.8 - Partly cloudy 10 - - - -
29/03:30am 15.9 NW 11 15 1008.7 - 2.8 - Partly cloudy 10 - - - -
29/03:00am 16.0 NW 11 15 1008.9 - 2.8 - Cloudy 10 - - - -
29/02:30am 15.6 NNW 9 13 1008.2 - 2.8 - Partly cloudy 10 - - - -
29/02:00am 14.8 NNW 7 10 1008.2 - 2.8 - Partly cloudy 10 - - - -
29/01:30am 15.0 NNW 10 14 1008.5 - 2.8 - - 10 - - - -
29/01:00am 14.7 N 11 16 1009.0 - 2.8 - Partly cloudy 10 - - - -
29/12:30am 15.3 NNW 13 17 1009.4 - 2.8 - Partly cloudy 10 - - - -
29/12:00am 15.1 NNW 13 17 1009.6 - 2.8 - - 10 - - - -
 
Date/Time
WST
Temp

°C
Wind Pressure Rain
since 9am
mm
Weather Cloud Vis
km
Sea
Height
m
Swell
Dir
 
Speed
knots
Gust
knots
hPa Trend Height
m
Period
s
Dir
28/11:30pm 15.4 N 13 16 1009.4 - 2.8 - Partly cloudy 10 - - - -
28/11:19pm 15.3 N 13 20 1009.5 - 2.8 - Partly cloudy 10 - - - -
28/11:00pm 15.3 NW 11 14 1010.6 - 2.4 - Partly cloudy 4 - - - -
28/10:44pm 15.8 W 14 22 1010.6 - 1.0 - Partly cloudy 6 - - - -
28/10:30pm 17.4 N 12 17 1010.2 - 0.0 - Partly cloudy 10 - - - -
28/10:00pm 17.4 N 14 21 1010.2 - 0.0 - Partly cloudy 10 - - - -
28/09:30pm 17.5 N 13 18 1010.6 - 0.0 - - 10 - - - -
28/09:00pm 17.7 N 14 20 1010.8 - 0.0 - - 10 - - - -
28/08:50pm 18.1 N 15 25 1010.6 - 0.0 - - 10 - - - -
28/08:30pm 17.8 N 13 22 1010.7 - 0.0 - Partly cloudy 10 - - - -
28/08:00pm 17.4 N 13 18 1010.7 - 0.0 - - 10 - - - -
28/07:30pm 17.7 N 13 17 1010.7 - 0.0 - - 10 - - - -
28/07:00pm 16.8 N 9 16 1010.8 - 0.0 - - 10 - - - -
28/06:30pm 16.0 NNW 8 11 1010.7 - 0.0 - - 10 - - - -
28/06:00pm 16.9 N 10 13 1010.8 - 0.0 - - 10 - - - -
28/05:30pm 17.6 NNW 12 18 1010.6 - 0.0 - Partly cloudy 10 - - - -
28/05:00pm 18.5 NW 14 22 1010.6 - 0.0 Showers Mostly clear 10 - - - -
28/04:30pm 19.7 NNW 13 18 1010.6 - 0.0 - Mostly clear 10 - - - -

Other Formats:

Comma delimited format used in spreadsheet applications
http://www.bom.gov.au/fwo/IDW60701/IDW60701.94802.axf

JavaScript Object Notation format (JSON) in row-major order
http://www.bom.gov.au/fwo/IDW60701/IDW60701.94802.json